RIX weather

Riga International Airport
Riga, Riga (city), Latvia

Public forecast

Using degrees Celsius for public forecast. Weather courtesy of forecast.io.

Current aviation weather report (METAR) for Riga International Airport

Retrieved 2019/12/10 13:20 UTC (0 seconds ago):

EVRA 101320Z 35011KT 9999 -SHRA SCT010 SCT022CB OVC049 02/00 Q1010 R36/290195 NOSIG

Aviation forecast (TAF) for Riga International Airport

Retrieved 2019/12/10 15:19 UTC (0 seconds ago):

TAF EVRA 101400Z 1015/1115 35010KT 9999 SCT020 TEMPO 1015/1017 SCT015CB BECMG 1021/1023 18007KT